sensor_id;sensor_type;location;lat;lon;timestamp;temperature;humidity
13694;DHT22;6919;52.344;14.518;2023-11-19T00:00:37;3.30;99.90
13694;DHT22;6919;52.344;14.518;2023-11-19T00:03:05;3.20;99.90
13694;DHT22;6919;52.344;14.518;2023-11-19T00:05:35;3.30;99.90
13694;DHT22;6919;52.344;14.518;2023-11-19T00:08:03;3.30;99.90
13694;DHT22;6919;52.344;14.518;2023-11-19T00:10:34;3.30;99.90
13694;DHT22;6919;52.344;14.518;2023-11-19T00:13:02;3.30;99.90
13694;DHT22;6919;52.344;14.518;2023-11-19T00:15:31;3.40;99.90
13694;DHT22;6919;52.344;14.518;2023-11-19T00:17:59;3.20;99.90
13694;DHT22;6919;52.344;14.518;2023-11-19T00:20:31;3.30;99.90
13694;DHT22;6919;52.344;14.518;2023-11-19T00:22:59;3.30;99.90
13694;DHT22;6919;52.344;14.518;2023-11-19T00:25:29;3.30;99.90
13694;DHT22;6919;52.344;14.518;2023-11-19T00:27:58;3.30;99.90
13694;DHT22;6919;52.344;14.518;2023-11-19T00:30:27;3.30;99.90
13694;DHT22;6919;52.344;14.518;2023-11-19T00:32:55;3.40;99.90
13694;DHT22;6919;52.344;14.518;2023-11-19T00:35:23;3.30;99.90
13694;DHT22;6919;52.344;14.518;2023-11-19T00:37:51;3.30;99.90
13694;DHT22;6919;52.344;14.518;2023-11-19T00:40:21;3.30;99.90
13694;DHT22;6919;52.344;14.518;2023-11-19T00:42:50;3.40;99.90
13694;DHT22;6919;52.344;14.518;2023-11-19T00:45:20;3.20;99.90
13694;DHT22;6919;52.344;14.518;2023-11-19T00:47:48;3.30;99.90
13694;DHT22;6919;52.344;14.518;2023-11-19T00:50:17;3.30;99.90
13694;DHT22;6919;52.344;14.518;2023-11-19T00:52:45;3.30;99.90
13694;DHT22;6919;52.344;14.518;2023-11-19T00:55:13;3.40;99.90
13694;DHT22;6919;52.344;14.518;2023-11-19T00:57:42;3.30;99.90
13694;DHT22;6919;52.344;14.518;2023-11-19T01:00:11;3.30;99.90
13694;DHT22;6919;52.344;14.518;2023-11-19T01:02:48;3.30;99.90
13694;DHT22;6919;52.344;14.518;2023-11-19T01:05:19;3.30;99.90
13694;DHT22;6919;52.344;14.518;2023-11-19T01:07:49;3.30;99.90
13694;DHT22;6919;52.344;14.518;2023-11-19T01:10:20;3.20;99.90
13694;DHT22;6919;52.344;14.518;2023-11-19T01:12:49;3.20;99.90
13694;DHT22;6919;52.344;14.518;2023-11-19T01:15:17;3.20;99.90
13694;DHT22;6919;52.344;14.518;2023-11-19T01:17:48;3.40;99.90
13694;DHT22;6919;52.344;14.518;2023-11-19T01:20:19;4.00;99.90
13694;DHT22;6919;52.344;14.518;2023-11-19T01:22:48;3.80;99.90
13694;DHT22;6919;52.344;14.518;2023-11-19T01:25:17;3.40;99.90
13694;DHT22;6919;52.344;14.518;2023-11-19T01:27:45;3.30;99.90
13694;DHT22;6919;52.344;14.518;2023-11-19T01:30:14;3.40;99.90
13694;DHT22;6919;52.344;14.518;2023-11-19T01:32:42;3.20;99.90
13694;DHT22;6919;52.344;14.518;2023-11-19T01:35:12;3.40;99.90
13694;DHT22;6919;52.344;14.518;2023-11-19T01:37:41;3.20;99.90
13694;DHT22;6919;52.344;14.518;2023-11-19T01:40:10;3.40;99.90
13694;DHT22;6919;52.344;14.518;2023-11-19T01:42:40;3.20;99.90
13694;DHT22;6919;52.344;14.518;2023-11-19T01:45:09;3.30;99.90
13694;DHT22;6919;52.344;14.518;2023-11-19T01:47:47;3.30;99.90
13694;DHT22;6919;52.344;14.518;2023-11-19T01:50:17;3.20;99.90
13694;DHT22;6919;52.344;14.518;2023-11-19T01:52:46;3.20;99.90
13694;DHT22;6919;52.344;14.518;2023-11-19T01:55:15;3.20;99.90
13694;DHT22;6919;52.344;14.518;2023-11-19T01:57:44;3.20;99.90
13694;DHT22;6919;52.344;14.518;2023-11-19T02:00:13;3.20;99.90
13694;DHT22;6919;52.344;14.518;2023-11-19T02:02:43;3.30;99.90
13694;DHT22;6919;52.344;14.518;2023-11-19T02:05:13;3.30;99.90
13694;DHT22;6919;52.344;14.518;2023-11-19T02:07:43;3.30;99.90
13694;DHT22;6919;52.344;14.518;2023-11-19T02:10:13;3.30;99.90
13694;DHT22;6919;52.344;14.518;2023-11-19T02:12:43;3.40;99.90
13694;DHT22;6919;52.344;14.518;2023-11-19T02:15:12;3.80;99.90
13694;DHT22;6919;52.344;14.518;2023-11-19T02:17:40;3.20;99.90
13694;DHT22;6919;52.344;14.518;2023-11-19T02:20:10;3.30;99.90
13694;DHT22;6919;52.344;14.518;2023-11-19T02:22:43;3.30;99.90
13694;DHT22;6919;52.344;14.518;2023-11-19T02:25:19;3.30;99.90
13694;DHT22;6919;52.344;14.518;2023-11-19T02:27:57;3.30;99.90
13694;DHT22;6919;52.344;14.518;2023-11-19T02:30:27;3.20;99.90
13694;DHT22;6919;52.344;14.518;2023-11-19T02:32:56;3.30;99.90
13694;DHT22;6919;52.344;14.518;2023-11-19T02:35:26;3.20;99.90
13694;DHT22;6919;52.344;14.518;2023-11-19T02:37:54;3.30;99.90
13694;DHT22;6919;52.344;14.518;2023-11-19T02:40:22;3.30;99.90
13694;DHT22;6919;52.344;14.518;2023-11-19T02:42:52;3.30;99.90
13694;DHT22;6919;52.344;14.518;2023-11-19T02:45:22;3.30;99.90
13694;DHT22;6919;52.344;14.518;2023-11-19T02:47:52;3.20;99.90
13694;DHT22;6919;52.344;14.518;2023-11-19T02:50:21;4.50;99.90
13694;DHT22;6919;52.344;14.518;2023-11-19T02:52:54;3.40;99.90
13694;DHT22;6919;52.344;14.518;2023-11-19T02:55:24;3.40;99.90
13694;DHT22;6919;52.344;14.518;2023-11-19T02:57:55;5.00;99.90
13694;DHT22;6919;52.344;14.518;2023-11-19T03:00:27;3.30;99.90
13694;DHT22;6919;52.344;14.518;2023-11-19T03:03:00;3.40;99.90
13694;DHT22;6919;52.344;14.518;2023-11-19T03:05:37;3.30;99.90
13694;DHT22;6919;52.344;14.518;2023-11-19T03:08:07;3.30;99.90
13694;DHT22;6919;52.344;14.518;2023-11-19T03:10:35;3.30;99.90
13694;DHT22;6919;52.344;14.518;2023-11-19T03:13:03;3.30;99.90
13694;DHT22;6919;52.344;14.518;2023-11-19T03:15:34;3.40;99.90
13694;DHT22;6919;52.344;14.518;2023-11-19T03:18:02;3.30;99.90
13694;DHT22;6919;52.344;14.518;2023-11-19T03:20:30;3.30;99.90
13694;DHT22;6919;52.344;14.518;2023-11-19T03:22:59;3.30;99.90
13694;DHT22;6919;52.344;14.518;2023-11-19T03:25:28;3.30;99.90
13694;DHT22;6919;52.344;14.518;2023-11-19T03:28:00;3.40;99.90
13694;DHT22;6919;52.344;14.518;2023-11-19T03:30:29;3.30;99.90
13694;DHT22;6919;52.344;14.518;2023-11-19T03:33:02;4.30;99.90
13694;DHT22;6919;52.344;14.518;2023-11-19T03:35:31;3.20;99.90
13694;DHT22;6919;52.344;14.518;2023-11-19T03:38:00;3.40;99.90
13694;DHT22;6919;52.344;14.518;2023-11-19T03:40:29;3.30;99.90
13694;DHT22;6919;52.344;14.518;2023-11-19T03:42:57;3.40;99.90
13694;DHT22;6919;52.344;14.518;2023-11-19T03:45:26;3.30;99.90
13694;DHT22;6919;52.344;14.518;2023-11-19T03:47:54;3.40;99.90
13694;DHT22;6919;52.344;14.518;2023-11-19T03:50:24;3.40;99.90
13694;DHT22;6919;52.344;14.518;2023-11-19T03:52:52;3.40;99.90
13694;DHT22;6919;52.344;14.518;2023-11-19T03:55:20;3.40;99.90
13694;DHT22;6919;52.344;14.518;2023-11-19T03:57:48;3.40;99.90
13694;DHT22;6919;52.344;14.518;2023-11-19T04:00:16;3.40;99.90
13694;DHT22;6919;52.344;14.518;2023-11-19T04:02:48;3.40;99.90
13694;DHT22;6919;52.344;14.518;2023-11-19T04:05:16;3.40;99.90
13694;DHT22;6919;52.344;14.518;2023-11-19T04:07:47;3.40;99.90
13694;DHT22;6919;52.344;14.518;2023-11-19T04:10:15;3.40;99.90
13694;DHT22;6919;52.344;14.518;2023-11-19T04:12:45;3.40;99.90
13694;DHT22;6919;52.344;14.518;2023-11-19T04:15:14;3.40;99.90
13694;DHT22;6919;52.344;14.518;2023-11-19T04:17:43;3.50;99.90
13694;DHT22;6919;52.344;14.518;2023-11-19T04:20:11;3.40;99.90
13694;DHT22;6919;52.344;14.518;2023-11-19T04:22:41;3.60;99.90
13694;DHT22;6919;52.344;14.518;2023-11-19T04:25:11;3.50;99.90
13694;DHT22;6919;52.344;14.518;2023-11-19T04:27:40;3.40;99.90
13694;DHT22;6919;52.344;14.518;2023-11-19T04:30:09;3.40;99.90
13694;DHT22;6919;52.344;14.518;2023-11-19T04:32:38;3.40;99.90
13694;DHT22;6919;52.344;14.518;2023-11-19T04:35:08;3.40;99.90
13694;DHT22;6919;52.344;14.518;2023-11-19T04:37:37;3.40;99.90
13694;DHT22;6919;52.344;14.518;2023-11-19T04:40:06;3.50;99.90
13694;DHT22;6919;52.344;14.518;2023-11-19T04:42:37;3.50;99.90
13694;DHT22;6919;52.344;14.518;2023-11-19T04:45:07;3.50;99.90
13694;DHT22;6919;52.344;14.518;2023-11-19T04:47:37;3.50;99.90
13694;DHT22;6919;52.344;14.518;2023-11-19T04:50:06;3.50;99.90
13694;DHT22;6919;52.344;14.518;2023-11-19T04:52:37;3.50;99.90
13694;DHT22;6919;52.344;14.518;2023-11-19T04:55:09;3.60;99.90
13694;DHT22;6919;52.344;14.518;2023-11-19T04:57:40;3.60;99.90
13694;DHT22;6919;52.344;14.518;2023-11-19T05:00:10;3.60;99.90
13694;DHT22;6919;52.344;14.518;2023-11-19T05:02:43;3.60;99.90
13694;DHT22;6919;52.344;14.518;2023-11-19T05:05:12;3.50;99.90
13694;DHT22;6919;52.344;14.518;2023-11-19T05:07:40;3.50;99.90
13694;DHT22;6919;52.344;14.518;2023-11-19T05:10:09;3.60;99.90
13694;DHT22;6919;52.344;14.518;2023-11-19T05:12:37;3.60;99.90
13694;DHT22;6919;52.344;14.518;2023-11-19T05:15:08;3.50;99.90
13694;DHT22;6919;52.344;14.518;2023-11-19T05:17:38;3.50;99.90
13694;DHT22;6919;52.344;14.518;2023-11-19T05:20:07;3.50;99.90
13694;DHT22;6919;52.344;14.518;2023-11-19T05:22:40;3.50;99.90
13694;DHT22;6919;52.344;14.518;2023-11-19T05:25:09;3.50;99.90
13694;DHT22;6919;52.344;14.518;2023-11-19T05:27:38;3.50;99.90
13694;DHT22;6919;52.344;14.518;2023-11-19T05:30:08;3.50;99.90
13694;DHT22;6919;52.344;14.518;2023-11-19T05:32:38;3.50;99.90
13694;DHT22;6919;52.344;14.518;2023-11-19T05:35:07;3.40;99.90
13694;DHT22;6919;52.344;14.518;2023-11-19T05:37:36;3.40;99.90
13694;DHT22;6919;52.344;14.518;2023-11-19T05:40:06;3.40;99.90
13694;DHT22;6919;52.344;14.518;2023-11-19T05:42:42;3.50;99.90
13694;DHT22;6919;52.344;14.518;2023-11-19T05:45:12;3.40;99.90
13694;DHT22;6919;52.344;14.518;2023-11-19T05:47:41;3.40;99.90
13694;DHT22;6919;52.344;14.518;2023-11-19T05:50:10;3.50;99.90
13694;DHT22;6919;52.344;14.518;2023-11-19T05:52:39;3.50;99.90
13694;DHT22;6919;52.344;14.518;2023-11-19T05:55:07;3.60;99.90
13694;DHT22;6919;52.344;14.518;2023-11-19T05:57:37;3.60;99.90
13694;DHT22;6919;52.344;14.518;2023-11-19T06:00:10;3.50;99.90
13694;DHT22;6919;52.344;14.518;2023-11-19T06:02:42;3.50;99.90
13694;DHT22;6919;52.344;14.518;2023-11-19T06:05:10;3.40;99.90
13694;DHT22;6919;52.344;14.518;2023-11-19T06:07:39;3.50;99.90
13694;DHT22;6919;52.344;14.518;2023-11-19T06:10:08;3.50;99.90
13694;DHT22;6919;52.344;14.518;2023-11-19T06:12:38;3.50;99.90
13694;DHT22;6919;52.344;14.518;2023-11-19T06:15:08;3.50;99.90
13694;DHT22;6919;52.344;14.518;2023-11-19T06:17:40;3.50;99.90
13694;DHT22;6919;52.344;14.518;2023-11-19T06:20:10;3.50;99.90
13694;DHT22;6919;52.344;14.518;2023-11-19T06:22:39;3.50;99.90
13694;DHT22;6919;52.344;14.518;2023-11-19T06:25:09;3.50;99.90
13694;DHT22;6919;52.344;14.518;2023-11-19T06:27:39;3.60;99.90
13694;DHT22;6919;52.344;14.518;2023-11-19T06:30:08;3.60;99.90
13694;DHT22;6919;52.344;14.518;2023-11-19T06:32:37;3.50;99.90
13694;DHT22;6919;52.344;14.518;2023-11-19T06:35:08;3.60;99.90
13694;DHT22;6919;52.344;14.518;2023-11-19T06:37:39;3.60;99.90
13694;DHT22;6919;52.344;14.518;2023-11-19T06:40:08;3.60;99.90
13694;DHT22;6919;52.344;14.518;2023-11-19T06:42:38;3.50;99.90
13694;DHT22;6919;52.344;14.518;2023-11-19T06:45:07;3.70;99.90
13694;DHT22;6919;52.344;14.518;2023-11-19T06:47:36;3.60;99.90
13694;DHT22;6919;52.344;14.518;2023-11-19T06:50:06;3.60;99.90
13694;DHT22;6919;52.344;14.518;2023-11-19T06:52:39;3.60;99.90
13694;DHT22;6919;52.344;14.518;2023-11-19T06:55:08;3.60;99.90
13694;DHT22;6919;52.344;14.518;2023-11-19T06:57:37;3.70;99.90
13694;DHT22;6919;52.344;14.518;2023-11-19T07:00:06;3.70;99.90
13694;DHT22;6919;52.344;14.518;2023-11-19T07:02:36;3.70;99.90
13694;DHT22;6919;52.344;14.518;2023-11-19T07:05:05;3.80;99.90
13694;DHT22;6919;52.344;14.518;2023-11-19T07:07:36;3.80;99.90
13694;DHT22;6919;52.344;14.518;2023-11-19T07:10:05;3.70;99.90
13694;DHT22;6919;52.344;14.518;2023-11-19T07:12:36;3.70;99.90
13694;DHT22;6919;52.344;14.518;2023-11-19T07:15:06;3.80;99.90
13694;DHT22;6919;52.344;14.518;2023-11-19T07:17:35;3.80;99.90
13694;DHT22;6919;52.344;14.518;2023-11-19T07:20:04;3.80;99.90
13694;DHT22;6919;52.344;14.518;2023-11-19T07:22:32;3.90;99.90
13694;DHT22;6919;52.344;14.518;2023-11-19T07:25:02;3.80;99.90
13694;DHT22;6919;52.344;14.518;2023-11-19T07:27:31;3.80;99.90
13694;DHT22;6919;52.344;14.518;2023-11-19T07:29:59;3.80;99.90
13694;DHT22;6919;52.344;14.518;2023-11-19T07:32:28;3.80;99.90
13694;DHT22;6919;52.344;14.518;2023-11-19T07:34:57;3.80;99.90
13694;DHT22;6919;52.344;14.518;2023-11-19T07:37:26;4.00;99.90
13694;DHT22;6919;52.344;14.518;2023-11-19T07:39:54;3.80;99.90
13694;DHT22;6919;52.344;14.518;2023-11-19T07:42:24;3.90;99.90
13694;DHT22;6919;52.344;14.518;2023-11-19T07:44:52;3.90;99.90
13694;DHT22;6919;52.344;14.518;2023-11-19T07:47:22;3.90;99.90
13694;DHT22;6919;52.344;14.518;2023-11-19T07:49:50;4.00;99.90
13694;DHT22;6919;52.344;14.518;2023-11-19T07:52:19;3.90;99.90
13694;DHT22;6919;52.344;14.518;2023-11-19T07:54:48;4.00;99.90
13694;DHT22;6919;52.344;14.518;2023-11-19T07:57:16;4.00;99.90
13694;DHT22;6919;52.344;14.518;2023-11-19T07:59:48;3.90;99.90
13694;DHT22;6919;52.344;14.518;2023-11-19T08:02:17;4.00;99.90
13694;DHT22;6919;52.344;14.518;2023-11-19T08:04:46;4.10;99.90
13694;DHT22;6919;52.344;14.518;2023-11-19T08:07:17;4.20;99.90
13694;DHT22;6919;52.344;14.518;2023-11-19T08:09:46;4.10;99.90
13694;DHT22;6919;52.344;14.518;2023-11-19T08:12:15;4.10;99.90
13694;DHT22;6919;52.344;14.518;2023-11-19T08:14:44;4.10;99.90
13694;DHT22;6919;52.344;14.518;2023-11-19T08:17:14;4.20;99.90
13694;DHT22;6919;52.344;14.518;2023-11-19T08:19:43;4.20;99.90
13694;DHT22;6919;52.344;14.518;2023-11-19T08:22:11;4.30;99.90
13694;DHT22;6919;52.344;14.518;2023-11-19T08:24:39;4.40;99.90
13694;DHT22;6919;52.344;14.518;2023-11-19T08:27:08;4.30;99.90
13694;DHT22;6919;52.344;14.518;2023-11-19T08:29:36;4.30;99.90
13694;DHT22;6919;52.344;14.518;2023-11-19T08:32:06;4.30;99.90
13694;DHT22;6919;52.344;14.518;2023-11-19T08:34:36;4.30;99.90
13694;DHT22;6919;52.344;14.518;2023-11-19T08:37:04;4.30;99.90
13694;DHT22;6919;52.344;14.518;2023-11-19T08:39:32;4.40;99.90
13694;DHT22;6919;52.344;14.518;2023-11-19T08:42:01;4.30;99.90
13694;DHT22;6919;52.344;14.518;2023-11-19T08:44:30;4.20;99.90
13694;DHT22;6919;52.344;14.518;2023-11-19T08:46:58;4.40;99.90
13694;DHT22;6919;52.344;14.518;2023-11-19T08:49:27;3.80;99.90
13694;DHT22;6919;52.344;14.518;2023-11-19T08:51:56;4.40;99.90
13694;DHT22;6919;52.344;14.518;2023-11-19T08:54:25;4.50;99.90
13694;DHT22;6919;52.344;14.518;2023-11-19T08:56:53;4.40;99.90
13694;DHT22;6919;52.344;14.518;2023-11-19T08:59:22;4.60;99.90
13694;DHT22;6919;52.344;14.518;2023-11-19T09:01:50;5.20;99.90
13694;DHT22;6919;52.344;14.518;2023-11-19T09:04:19;4.60;99.90
13694;DHT22;6919;52.344;14.518;2023-11-19T09:06:49;4.60;99.90
13694;DHT22;6919;52.344;14.518;2023-11-19T09:09:19;4.60;99.90
13694;DHT22;6919;52.344;14.518;2023-11-19T09:11:47;4.80;99.90
13694;DHT22;6919;52.344;14.518;2023-11-19T09:14:16;5.10;99.90
13694;DHT22;6919;52.344;14.518;2023-11-19T09:16:45;4.80;99.90
13694;DHT22;6919;52.344;14.518;2023-11-19T09:19:13;5.00;99.90
13694;DHT22;6919;52.344;14.518;2023-11-19T09:21:41;5.00;99.90
13694;DHT22;6919;52.344;14.518;2023-11-19T09:24:10;4.90;99.90
13694;DHT22;6919;52.344;14.518;2023-11-19T09:26:44;4.90;99.90
13694;DHT22;6919;52.344;14.518;2023-11-19T09:29:12;5.00;99.90
13694;DHT22;6919;52.344;14.518;2023-11-19T09:31:42;4.90;99.90
13694;DHT22;6919;52.344;14.518;2023-11-19T09:34:10;5.30;99.90
13694;DHT22;6919;52.344;14.518;2023-11-19T09:36:39;5.10;99.90
13694;DHT22;6919;52.344;14.518;2023-11-19T09:39:11;5.10;99.90
13694;DHT22;6919;52.344;14.518;2023-11-19T09:41:41;5.40;99.90
13694;DHT22;6919;52.344;14.518;2023-11-19T09:44:12;5.40;99.90
13694;DHT22;6919;52.344;14.518;2023-11-19T09:46:45;5.40;99.90
13694;DHT22;6919;52.344;14.518;2023-11-19T09:49:19;5.50;99.90
13694;DHT22;6919;52.344;14.518;2023-11-19T09:51:56;5.60;99.90
13694;DHT22;6919;52.344;14.518;2023-11-19T09:54:25;5.50;99.90
13694;DHT22;6919;52.344;14.518;2023-11-19T09:56:56;5.60;99.90
13694;DHT22;6919;52.344;14.518;2023-11-19T09:59:30;5.80;99.90
13694;DHT22;6919;52.344;14.518;2023-11-19T10:01:59;5.90;99.90
13694;DHT22;6919;52.344;14.518;2023-11-19T10:04:29;6.10;99.90
13694;DHT22;6919;52.344;14.518;2023-11-19T10:07:00;5.90;99.90
13694;DHT22;6919;52.344;14.518;2023-11-19T10:09:29;5.90;99.90
13694;DHT22;6919;52.344;14.518;2023-11-19T10:11:59;5.90;99.90
13694;DHT22;6919;52.344;14.518;2023-11-19T10:14:29;6.20;99.90
13694;DHT22;6919;52.344;14.518;2023-11-19T10:17:01;6.20;99.90
13694;DHT22;6919;52.344;14.518;2023-11-19T10:19:31;6.20;99.90
13694;DHT22;6919;52.344;14.518;2023-11-19T10:22:03;6.20;99.90
13694;DHT22;6919;52.344;14.518;2023-11-19T10:24:33;6.30;99.90
13694;DHT22;6919;52.344;14.518;2023-11-19T10:27:08;6.40;99.90
13694;DHT22;6919;52.344;14.518;2023-11-19T10:29:37;6.50;99.90
13694;DHT22;6919;52.344;14.518;2023-11-19T10:32:06;6.30;99.90
13694;DHT22;6919;52.344;14.518;2023-11-19T10:34:55;6.70;99.90
13694;DHT22;6919;52.344;14.518;2023-11-19T10:37:33;6.80;99.90
13694;DHT22;6919;52.344;14.518;2023-11-19T10:40:05;6.90;99.90
13694;DHT22;6919;52.344;14.518;2023-11-19T10:42:39;7.30;99.90
13694;DHT22;6919;52.344;14.518;2023-11-19T10:45:22;7.30;99.90
13694;DHT22;6919;52.344;14.518;2023-11-19T10:47:52;7.50;99.90
13694;DHT22;6919;52.344;14.518;2023-11-19T10:50:23;7.50;99.90
13694;DHT22;6919;52.344;14.518;2023-11-19T10:52:55;7.50;99.90
13694;DHT22;6919;52.344;14.518;2023-11-19T10:55:27;7.70;99.90
13694;DHT22;6919;52.344;14.518;2023-11-19T10:58:00;7.70;99.90
13694;DHT22;6919;52.344;14.518;2023-11-19T11:00:33;7.70;99.90
13694;DHT22;6919;52.344;14.518;2023-11-19T11:03:10;7.80;99.90
13694;DHT22;6919;52.344;14.518;2023-11-19T11:05:42;7.80;99.90
13694;DHT22;6919;52.344;14.518;2023-11-19T11:08:15;7.80;99.90
13694;DHT22;6919;52.344;14.518;2023-11-19T11:10:48;7.70;99.90
13694;DHT22;6919;52.344;14.518;2023-11-19T11:13:26;7.70;99.90
13694;DHT22;6919;52.344;14.518;2023-11-19T11:15:56;7.80;99.90
13694;DHT22;6919;52.344;14.518;2023-11-19T11:18:26;7.80;99.90
13694;DHT22;6919;52.344;14.518;2023-11-19T11:21:00;7.90;99.90
13694;DHT22;6919;52.344;14.518;2023-11-19T11:24:10;7.90;99.90
13694;DHT22;6919;52.344;14.518;2023-11-19T11:27:27;8.20;99.90
13694;DHT22;6919;52.344;14.518;2023-11-19T11:30:17;8.40;99.90
13694;DHT22;6919;52.344;14.518;2023-11-19T11:33:02;8.40;99.90
13694;DHT22;6919;52.344;14.518;2023-11-19T11:36:02;8.50;99.90
13694;DHT22;6919;52.344;14.518;2023-11-19T11:38:41;8.50;99.90
13694;DHT22;6919;52.344;14.518;2023-11-19T11:41:16;8.60;99.90
13694;DHT22;6919;52.344;14.518;2023-11-19T11:43:48;8.90;99.90
13694;DHT22;6919;52.344;14.518;2023-11-19T11:46:55;8.90;99.90
13694;DHT22;6919;52.344;14.518;2023-11-19T11:49:28;9.00;99.90
13694;DHT22;6919;52.344;14.518;2023-11-19T11:52:02;9.10;99.90
13694;DHT22;6919;52.344;14.518;2023-11-19T11:54:31;9.10;99.90
13694;DHT22;6919;52.344;14.518;2023-11-19T11:57:03;9.10;99.90
13694;DHT22;6919;52.344;14.518;2023-11-19T11:59:42;9.20;99.90
13694;DHT22;6919;52.344;14.518;2023-11-19T12:02:16;9.40;99.90
13694;DHT22;6919;52.344;14.518;2023-11-19T12:04:49;9.50;99.90
13694;DHT22;6919;52.344;14.518;2023-11-19T12:07:21;9.60;99.90
13694;DHT22;6919;52.344;14.518;2023-11-19T12:09:52;9.70;99.90
13694;DHT22;6919;52.344;14.518;2023-11-19T12:12:26;9.70;99.90
13694;DHT22;6919;52.344;14.518;2023-11-19T12:15:03;9.80;99.90
13694;DHT22;6919;52.344;14.518;2023-11-19T12:17:41;9.90;99.90
13694;DHT22;6919;52.344;14.518;2023-11-19T12:20:17;9.90;99.90
13694;DHT22;6919;52.344;14.518;2023-11-19T12:22:49;9.90;99.90
13694;DHT22;6919;52.344;14.518;2023-11-19T12:25:19;9.90;99.90
13694;DHT22;6919;52.344;14.518;2023-11-19T12:27:49;10.00;99.90
13694;DHT22;6919;52.344;14.518;2023-11-19T12:30:21;10.00;99.90
13694;DHT22;6919;52.344;14.518;2023-11-19T12:32:53;10.00;99.90
13694;DHT22;6919;52.344;14.518;2023-11-19T12:35:22;10.00;99.90
13694;DHT22;6919;52.344;14.518;2023-11-19T12:37:51;10.10;99.90
13694;DHT22;6919;52.344;14.518;2023-11-19T12:40:22;10.20;99.90
13694;DHT22;6919;52.344;14.518;2023-11-19T12:42:53;10.30;99.90
13694;DHT22;6919;52.344;14.518;2023-11-19T12:45:22;10.40;99.90
13694;DHT22;6919;52.344;14.518;2023-11-19T12:48:06;10.60;99.90
13694;DHT22;6919;52.344;14.518;2023-11-19T12:50:51;10.70;99.90
13694;DHT22;6919;52.344;14.518;2023-11-19T12:53:21;10.80;99.90
13694;DHT22;6919;52.344;14.518;2023-11-19T12:55:50;10.90;99.90
13694;DHT22;6919;52.344;14.518;2023-11-19T12:58:28;10.90;99.90
13694;DHT22;6919;52.344;14.518;2023-11-19T13:01:01;10.90;99.90
13694;DHT22;6919;52.344;14.518;2023-11-19T13:03:33;10.90;99.90
13694;DHT22;6919;52.344;14.518;2023-11-19T13:06:02;11.00;99.90
13694;DHT22;6919;52.344;14.518;2023-11-19T13:08:38;10.90;99.90
13694;DHT22;6919;52.344;14.518;2023-11-19T13:11:08;10.90;99.90
13694;DHT22;6919;52.344;14.518;2023-11-19T13:13:56;11.00;99.90
13694;DHT22;6919;52.344;14.518;2023-11-19T13:16:27;11.00;99.90
13694;DHT22;6919;52.344;14.518;2023-11-19T13:18:57;10.90;99.90
13694;DHT22;6919;52.344;14.518;2023-11-19T13:21:27;10.80;99.90
13694;DHT22;6919;52.344;14.518;2023-11-19T13:23:56;10.80;99.90
13694;DHT22;6919;52.344;14.518;2023-11-19T13:26:24;10.80;99.90
13694;DHT22;6919;52.344;14.518;2023-11-19T13:28:53;10.90;99.90
13694;DHT22;6919;52.344;14.518;2023-11-19T13:31:21;10.80;99.90
13694;DHT22;6919;52.344;14.518;2023-11-19T13:33:50;10.80;99.90
13694;DHT22;6919;52.344;14.518;2023-11-19T13:36:19;10.80;99.90
13694;DHT22;6919;52.344;14.518;2023-11-19T13:38:47;10.80;99.90
13694;DHT22;6919;52.344;14.518;2023-11-19T13:41:16;10.90;99.90
13694;DHT22;6919;52.344;14.518;2023-11-19T13:43:44;10.90;99.90
13694;DHT22;6919;52.344;14.518;2023-11-19T13:46:12;10.80;99.90
13694;DHT22;6919;52.344;14.518;2023-11-19T13:48:41;10.90;99.90
13694;DHT22;6919;52.344;14.518;2023-11-19T13:51:10;10.80;99.90
13694;DHT22;6919;52.344;14.518;2023-11-19T13:53:40;10.80;99.90
13694;DHT22;6919;52.344;14.518;2023-11-19T13:56:11;10.90;99.90
13694;DHT22;6919;52.344;14.518;2023-11-19T13:58:39;10.90;99.90
13694;DHT22;6919;52.344;14.518;2023-11-19T14:01:08;10.90;99.90
13694;DHT22;6919;52.344;14.518;2023-11-19T14:03:36;10.90;99.90
13694;DHT22;6919;52.344;14.518;2023-11-19T14:06:05;10.90;99.90
13694;DHT22;6919;52.344;14.518;2023-11-19T14:08:35;10.80;99.90
13694;DHT22;6919;52.344;14.518;2023-11-19T14:11:06;10.80;99.90
13694;DHT22;6919;52.344;14.518;2023-11-19T14:13:34;10.90;99.90
13694;DHT22;6919;52.344;14.518;2023-11-19T14:16:02;10.80;99.90
13694;DHT22;6919;52.344;14.518;2023-11-19T14:18:33;10.70;99.90
13694;DHT22;6919;52.344;14.518;2023-11-19T14:21:02;10.60;99.90
13694;DHT22;6919;52.344;14.518;2023-11-19T14:23:31;10.70;99.90
13694;DHT22;6919;52.344;14.518;2023-11-19T14:26:00;10.70;99.90
13694;DHT22;6919;52.344;14.518;2023-11-19T14:28:30;10.70;99.90
13694;DHT22;6919;52.344;14.518;2023-11-19T14:30:58;10.80;99.90
13694;DHT22;6919;52.344;14.518;2023-11-19T14:33:27;10.70;99.90
13694;DHT22;6919;52.344;14.518;2023-11-19T14:35:55;10.50;99.90
13694;DHT22;6919;52.344;14.518;2023-11-19T14:38:23;10.70;99.90
13694;DHT22;6919;52.344;14.518;2023-11-19T14:40:51;10.70;99.90
13694;DHT22;6919;52.344;14.518;2023-11-19T14:43:21;10.70;99.90
13694;DHT22;6919;52.344;14.518;2023-11-19T14:45:52;10.70;99.90
13694;DHT22;6919;52.344;14.518;2023-11-19T14:48:23;10.70;99.90
13694;DHT22;6919;52.344;14.518;2023-11-19T14:50:51;10.60;99.90
13694;DHT22;6919;52.344;14.518;2023-11-19T14:53:19;10.60;99.90
13694;DHT22;6919;52.344;14.518;2023-11-19T14:55:49;10.70;99.90
13694;DHT22;6919;52.344;14.518;2023-11-19T14:58:17;10.70;99.90
13694;DHT22;6919;52.344;14.518;2023-11-19T15:00:46;10.70;99.90
13694;DHT22;6919;52.344;14.518;2023-11-19T15:03:15;10.60;99.90
13694;DHT22;6919;52.344;14.518;2023-11-19T15:05:46;10.60;99.90
13694;DHT22;6919;52.344;14.518;2023-11-19T15:08:14;10.40;99.90
13694;DHT22;6919;52.344;14.518;2023-11-19T15:10:43;10.40;99.90
13694;DHT22;6919;52.344;14.518;2023-11-19T15:13:13;10.40;99.90
13694;DHT22;6919;52.344;14.518;2023-11-19T15:15:42;10.30;99.90
13694;DHT22;6919;52.344;14.518;2023-11-19T15:18:10;10.30;99.90
13694;DHT22;6919;52.344;14.518;2023-11-19T15:20:40;10.30;99.90
13694;DHT22;6919;52.344;14.518;2023-11-19T15:23:08;10.20;99.90
13694;DHT22;6919;52.344;14.518;2023-11-19T15:25:37;10.20;99.90
13694;DHT22;6919;52.344;14.518;2023-11-19T15:28:06;10.20;99.90
13694;DHT22;6919;52.344;14.518;2023-11-19T15:30:34;10.10;99.90
13694;DHT22;6919;52.344;14.518;2023-11-19T15:33:03;10.10;99.90
13694;DHT22;6919;52.344;14.518;2023-11-19T15:35:31;10.10;99.90
13694;DHT22;6919;52.344;14.518;2023-11-19T15:38:01;10.00;99.90
13694;DHT22;6919;52.344;14.518;2023-11-19T15:40:30;10.00;99.90
13694;DHT22;6919;52.344;14.518;2023-11-19T15:42:58;10.00;99.90
13694;DHT22;6919;52.344;14.518;2023-11-19T15:45:27;10.10;99.90
13694;DHT22;6919;52.344;14.518;2023-11-19T15:47:55;10.10;99.90
13694;DHT22;6919;52.344;14.518;2023-11-19T15:50:23;10.10;99.90
13694;DHT22;6919;52.344;14.518;2023-11-19T15:52:52;10.00;99.90
13694;DHT22;6919;52.344;14.518;2023-11-19T15:55:22;10.00;99.90
13694;DHT22;6919;52.344;14.518;2023-11-19T15:57:50;10.00;99.90
13694;DHT22;6919;52.344;14.518;2023-11-19T16:00:18;10.00;99.90
13694;DHT22;6919;52.344;14.518;2023-11-19T16:02:48;10.00;99.90